sensor_id;sensor_type;location;lat;lon;timestamp;temperature;humidity
42227;DHT22;27892;52.378;13.122;2024-01-30T00:01:58;4.50;60.40
42227;DHT22;27892;52.378;13.122;2024-01-30T00:04:23;4.40;60.00
42227;DHT22;27892;52.378;13.122;2024-01-30T00:06:51;4.40;59.90
42227;DHT22;27892;52.378;13.122;2024-01-30T00:09:16;4.40;60.20
42227;DHT22;27892;52.378;13.122;2024-01-30T00:11:42;4.30;60.30
42227;DHT22;27892;52.378;13.122;2024-01-30T00:14:07;4.30;60.50
42227;DHT22;27892;52.378;13.122;2024-01-30T00:16:33;4.30;61.30
42227;DHT22;27892;52.378;13.122;2024-01-30T00:18:59;4.30;60.50
42227;DHT22;27892;52.378;13.122;2024-01-30T00:21:27;4.30;60.40
42227;DHT22;27892;52.378;13.122;2024-01-30T00:23:53;4.30;60.40
42227;DHT22;27892;52.378;13.122;2024-01-30T00:26:19;4.30;60.50
42227;DHT22;27892;52.378;13.122;2024-01-30T00:28:44;4.30;60.60
42227;DHT22;27892;52.378;13.122;2024-01-30T00:31:10;4.30;60.70
42227;DHT22;27892;52.378;13.122;2024-01-30T00:33:40;4.30;60.70
42227;DHT22;27892;52.378;13.122;2024-01-30T00:36:07;4.30;60.90
42227;DHT22;27892;52.378;13.122;2024-01-30T00:38:33;4.30;60.70
42227;DHT22;27892;52.378;13.122;2024-01-30T00:40:59;4.30;60.90
42227;DHT22;27892;52.378;13.122;2024-01-30T00:43:24;4.30;60.70
42227;DHT22;27892;52.378;13.122;2024-01-30T00:45:51;4.30;60.60
42227;DHT22;27892;52.378;13.122;2024-01-30T00:48:20;4.30;60.50
42227;DHT22;27892;52.378;13.122;2024-01-30T00:50:46;4.20;60.40
42227;DHT22;27892;52.378;13.122;2024-01-30T00:53:12;4.10;60.30
42227;DHT22;27892;52.378;13.122;2024-01-30T00:55:37;4.10;60.60
42227;DHT22;27892;52.378;13.122;2024-01-30T00:58:03;4.00;60.80
42227;DHT22;27892;52.378;13.122;2024-01-30T01:00:29;4.00;60.90
42227;DHT22;27892;52.378;13.122;2024-01-30T01:02:55;4.00;61.20
42227;DHT22;27892;52.378;13.122;2024-01-30T01:05:21;4.00;61.30
42227;DHT22;27892;52.378;13.122;2024-01-30T01:07:46;4.10;61.10
42227;DHT22;27892;52.378;13.122;2024-01-30T01:10:18;4.10;61.30
42227;DHT22;27892;52.378;13.122;2024-01-30T01:12:44;4.20;61.60
42227;DHT22;27892;52.378;13.122;2024-01-30T01:15:10;4.20;61.30
42227;DHT22;27892;52.378;13.122;2024-01-30T01:17:37;4.20;61.30
42227;DHT22;27892;52.378;13.122;2024-01-30T01:20:07;4.30;61.00
42227;DHT22;27892;52.378;13.122;2024-01-30T01:22:33;4.20;61.10
42227;DHT22;27892;52.378;13.122;2024-01-30T01:25:00;4.20;61.10
42227;DHT22;27892;52.378;13.122;2024-01-30T01:27:25;4.20;60.90
42227;DHT22;27892;52.378;13.122;2024-01-30T01:29:52;4.20;61.00
42227;DHT22;27892;52.378;13.122;2024-01-30T01:32:17;4.20;61.20
42227;DHT22;27892;52.378;13.122;2024-01-30T01:34:43;4.20;61.10
42227;DHT22;27892;52.378;13.122;2024-01-30T01:37:09;4.20;61.10
42227;DHT22;27892;52.378;13.122;2024-01-30T01:39:35;4.20;61.40
42227;DHT22;27892;52.378;13.122;2024-01-30T01:42:01;4.30;61.50
42227;DHT22;27892;52.378;13.122;2024-01-30T01:44:27;4.30;61.30
42227;DHT22;27892;52.378;13.122;2024-01-30T01:46:54;4.20;61.10
42227;DHT22;27892;52.378;13.122;2024-01-30T01:49:20;4.20;61.10
42227;DHT22;27892;52.378;13.122;2024-01-30T01:51:47;4.30;61.40
42227;DHT22;27892;52.378;13.122;2024-01-30T01:54:14;4.30;61.40
42227;DHT22;27892;52.378;13.122;2024-01-30T01:56:42;4.30;61.30
42227;DHT22;27892;52.378;13.122;2024-01-30T01:59:08;4.30;61.00
42227;DHT22;27892;52.378;13.122;2024-01-30T02:01:36;4.30;61.10
42227;DHT22;27892;52.378;13.122;2024-01-30T02:04:02;4.30;61.10
42227;DHT22;27892;52.378;13.122;2024-01-30T02:06:28;4.30;61.00
42227;DHT22;27892;52.378;13.122;2024-01-30T02:08:54;4.30;60.90
42227;DHT22;27892;52.378;13.122;2024-01-30T02:11:21;4.30;60.90
42227;DHT22;27892;52.378;13.122;2024-01-30T02:13:47;4.30;61.00
42227;DHT22;27892;52.378;13.122;2024-01-30T02:16:13;4.30;61.30
42227;DHT22;27892;52.378;13.122;2024-01-30T02:18:39;4.30;61.20
42227;DHT22;27892;52.378;13.122;2024-01-30T02:21:09;4.30;61.00
42227;DHT22;27892;52.378;13.122;2024-01-30T02:23:34;4.30;61.10
42227;DHT22;27892;52.378;13.122;2024-01-30T02:26:00;4.20;61.00
42227;DHT22;27892;52.378;13.122;2024-01-30T02:28:26;4.30;61.10
42227;DHT22;27892;52.378;13.122;2024-01-30T02:30:52;4.30;61.10
42227;DHT22;27892;52.378;13.122;2024-01-30T02:33:18;4.30;61.80
42227;DHT22;27892;52.378;13.122;2024-01-30T02:35:44;4.30;61.30
42227;DHT22;27892;52.378;13.122;2024-01-30T02:38:10;4.30;61.20
42227;DHT22;27892;52.378;13.122;2024-01-30T02:40:36;4.30;61.10
42227;DHT22;27892;52.378;13.122;2024-01-30T02:43:02;4.30;61.10
42227;DHT22;27892;52.378;13.122;2024-01-30T02:45:28;4.30;60.90
42227;DHT22;27892;52.378;13.122;2024-01-30T02:47:54;4.30;61.30
42227;DHT22;27892;52.378;13.122;2024-01-30T02:50:19;4.30;61.20
42227;DHT22;27892;52.378;13.122;2024-01-30T02:52:45;4.30;61.20
42227;DHT22;27892;52.378;13.122;2024-01-30T02:55:11;4.30;61.10
42227;DHT22;27892;52.378;13.122;2024-01-30T02:57:40;4.30;61.20
42227;DHT22;27892;52.378;13.122;2024-01-30T03:00:06;4.20;61.10
42227;DHT22;27892;52.378;13.122;2024-01-30T03:02:34;4.20;61.30
42227;DHT22;27892;52.378;13.122;2024-01-30T03:05:00;4.30;61.20
42227;DHT22;27892;52.378;13.122;2024-01-30T03:07:26;4.30;61.20
42227;DHT22;27892;52.378;13.122;2024-01-30T03:09:52;4.20;61.10
42227;DHT22;27892;52.378;13.122;2024-01-30T03:12:18;4.30;61.40
42227;DHT22;27892;52.378;13.122;2024-01-30T03:14:43;4.30;61.50
42227;DHT22;27892;52.378;13.122;2024-01-30T03:17:09;4.30;61.30
42227;DHT22;27892;52.378;13.122;2024-01-30T03:19:34;4.30;61.10
42227;DHT22;27892;52.378;13.122;2024-01-30T03:22:00;4.20;60.90
42227;DHT22;27892;52.378;13.122;2024-01-30T03:24:26;4.10;60.90
42227;DHT22;27892;52.378;13.122;2024-01-30T03:26:51;4.10;61.10
42227;DHT22;27892;52.378;13.122;2024-01-30T03:29:17;4.00;61.30
42227;DHT22;27892;52.378;13.122;2024-01-30T03:31:43;4.00;61.30
42227;DHT22;27892;52.378;13.122;2024-01-30T03:34:08;4.00;61.50
42227;DHT22;27892;52.378;13.122;2024-01-30T03:36:34;4.00;61.50
42227;DHT22;27892;52.378;13.122;2024-01-30T03:39:00;4.00;61.40
42227;DHT22;27892;52.378;13.122;2024-01-30T03:41:26;4.10;61.40
42227;DHT22;27892;52.378;13.122;2024-01-30T03:43:52;4.00;61.30
42227;DHT22;27892;52.378;13.122;2024-01-30T03:46:18;4.00;61.20
42227;DHT22;27892;52.378;13.122;2024-01-30T03:48:45;3.90;60.90
42227;DHT22;27892;52.378;13.122;2024-01-30T03:51:11;3.90;61.50
42227;DHT22;27892;52.378;13.122;2024-01-30T03:53:41;3.90;61.60
42227;DHT22;27892;52.378;13.122;2024-01-30T03:56:08;3.80;61.60
42227;DHT22;27892;52.378;13.122;2024-01-30T03:58:33;3.80;61.90
42227;DHT22;27892;52.378;13.122;2024-01-30T04:00:59;3.90;62.10
42227;DHT22;27892;52.378;13.122;2024-01-30T04:03:25;3.90;62.20
42227;DHT22;27892;52.378;13.122;2024-01-30T04:05:52;4.00;62.20
42227;DHT22;27892;52.378;13.122;2024-01-30T04:08:18;4.00;62.00
42227;DHT22;27892;52.378;13.122;2024-01-30T04:10:43;4.00;61.70
42227;DHT22;27892;52.378;13.122;2024-01-30T04:13:09;4.00;61.70
42227;DHT22;27892;52.378;13.122;2024-01-30T04:15:35;4.00;61.80
42227;DHT22;27892;52.378;13.122;2024-01-30T04:18:00;4.00;62.00
42227;DHT22;27892;52.378;13.122;2024-01-30T04:20:26;4.00;62.00
42227;DHT22;27892;52.378;13.122;2024-01-30T04:22:52;4.00;61.90
42227;DHT22;27892;52.378;13.122;2024-01-30T04:25:17;4.10;61.90
42227;DHT22;27892;52.378;13.122;2024-01-30T04:27:43;4.00;61.80
42227;DHT22;27892;52.378;13.122;2024-01-30T04:30:09;4.00;61.80
42227;DHT22;27892;52.378;13.122;2024-01-30T04:32:35;4.00;61.90
42227;DHT22;27892;52.378;13.122;2024-01-30T04:35:02;4.00;61.80
42227;DHT22;27892;52.378;13.122;2024-01-30T04:37:28;4.00;61.70
42227;DHT22;27892;52.378;13.122;2024-01-30T04:39:53;4.00;61.50
42227;DHT22;27892;52.378;13.122;2024-01-30T04:42:19;4.00;61.70
42227;DHT22;27892;52.378;13.122;2024-01-30T04:44:45;4.00;61.70
42227;DHT22;27892;52.378;13.122;2024-01-30T04:47:10;3.90;61.70
42227;DHT22;27892;52.378;13.122;2024-01-30T04:49:39;3.90;61.80
42227;DHT22;27892;52.378;13.122;2024-01-30T04:52:06;3.90;61.90
42227;DHT22;27892;52.378;13.122;2024-01-30T04:54:32;3.90;61.80
42227;DHT22;27892;52.378;13.122;2024-01-30T04:56:58;3.90;62.70
42227;DHT22;27892;52.378;13.122;2024-01-30T04:59:24;3.90;62.10
42227;DHT22;27892;52.378;13.122;2024-01-30T05:01:50;4.00;61.90
42227;DHT22;27892;52.378;13.122;2024-01-30T05:04:15;4.00;61.90
42227;DHT22;27892;52.378;13.122;2024-01-30T05:06:41;4.00;62.10
42227;DHT22;27892;52.378;13.122;2024-01-30T05:09:07;4.00;62.00
42227;DHT22;27892;52.378;13.122;2024-01-30T05:11:40;4.00;61.90
42227;DHT22;27892;52.378;13.122;2024-01-30T05:14:06;4.00;62.00
42227;DHT22;27892;52.378;13.122;2024-01-30T05:16:32;4.00;62.00
42227;DHT22;27892;52.378;13.122;2024-01-30T05:18:58;4.00;61.80
42227;DHT22;27892;52.378;13.122;2024-01-30T05:21:24;4.00;61.80
42227;DHT22;27892;52.378;13.122;2024-01-30T05:23:50;4.00;61.60
42227;DHT22;27892;52.378;13.122;2024-01-30T05:26:16;3.90;61.30
42227;DHT22;27892;52.378;13.122;2024-01-30T05:28:42;3.80;61.50
42227;DHT22;27892;52.378;13.122;2024-01-30T05:31:10;3.80;61.90
42227;DHT22;27892;52.378;13.122;2024-01-30T05:33:35;3.80;62.10
42227;DHT22;27892;52.378;13.122;2024-01-30T05:36:01;3.80;62.30
42227;DHT22;27892;52.378;13.122;2024-01-30T05:38:27;3.70;62.00
42227;DHT22;27892;52.378;13.122;2024-01-30T05:40:55;3.70;62.00
42227;DHT22;27892;52.378;13.122;2024-01-30T05:43:23;3.70;62.50
42227;DHT22;27892;52.378;13.122;2024-01-30T05:45:49;3.80;62.90
42227;DHT22;27892;52.378;13.122;2024-01-30T05:48:14;3.80;62.60
42227;DHT22;27892;52.378;13.122;2024-01-30T05:50:40;3.80;62.10
42227;DHT22;27892;52.378;13.122;2024-01-30T05:53:05;3.80;62.10
42227;DHT22;27892;52.378;13.122;2024-01-30T05:55:31;3.80;62.30
42227;DHT22;27892;52.378;13.122;2024-01-30T05:57:57;3.80;62.60
42227;DHT22;27892;52.378;13.122;2024-01-30T06:00:22;3.80;62.70
42227;DHT22;27892;52.378;13.122;2024-01-30T06:02:48;3.80;63.00
42227;DHT22;27892;52.378;13.122;2024-01-30T06:05:14;3.80;63.50
42227;DHT22;27892;52.378;13.122;2024-01-30T06:07:39;3.90;62.90
42227;DHT22;27892;52.378;13.122;2024-01-30T06:10:06;4.00;63.20
42227;DHT22;27892;52.378;13.122;2024-01-30T06:12:32;4.00;63.10
42227;DHT22;27892;52.378;13.122;2024-01-30T06:14:58;4.00;62.90
42227;DHT22;27892;52.378;13.122;2024-01-30T06:17:24;4.10;63.10
42227;DHT22;27892;52.378;13.122;2024-01-30T06:19:49;4.20;63.90
42227;DHT22;27892;52.378;13.122;2024-01-30T06:22:16;4.30;63.90
42227;DHT22;27892;52.378;13.122;2024-01-30T06:24:41;4.50;63.50
42227;DHT22;27892;52.378;13.122;2024-01-30T06:27:07;4.60;63.00
42227;DHT22;27892;52.378;13.122;2024-01-30T06:29:33;4.60;62.70
42227;DHT22;27892;52.378;13.122;2024-01-30T06:31:59;4.70;62.70
42227;DHT22;27892;52.378;13.122;2024-01-30T06:34:24;4.80;62.40
42227;DHT22;27892;52.378;13.122;2024-01-30T06:36:51;4.90;61.90
42227;DHT22;27892;52.378;13.122;2024-01-30T06:39:17;4.80;61.50
42227;DHT22;27892;52.378;13.122;2024-01-30T06:41:43;4.90;61.90
42227;DHT22;27892;52.378;13.122;2024-01-30T06:44:09;4.90;62.00
42227;DHT22;27892;52.378;13.122;2024-01-30T06:46:35;5.00;61.80
42227;DHT22;27892;52.378;13.122;2024-01-30T06:49:01;5.00;61.60
42227;DHT22;27892;52.378;13.122;2024-01-30T06:51:26;5.10;61.40
42227;DHT22;27892;52.378;13.122;2024-01-30T06:53:52;5.10;61.20
42227;DHT22;27892;52.378;13.122;2024-01-30T06:56:18;5.20;61.10
42227;DHT22;27892;52.378;13.122;2024-01-30T06:58:50;5.30;60.90
42227;DHT22;27892;52.378;13.122;2024-01-30T07:01:16;5.30;60.90
42227;DHT22;27892;52.378;13.122;2024-01-30T07:03:42;5.40;60.70
42227;DHT22;27892;52.378;13.122;2024-01-30T07:06:09;5.40;60.70
42227;DHT22;27892;52.378;13.122;2024-01-30T07:08:36;5.50;60.50
42227;DHT22;27892;52.378;13.122;2024-01-30T07:11:03;5.50;60.30
42227;DHT22;27892;52.378;13.122;2024-01-30T07:13:28;5.60;60.30
42227;DHT22;27892;52.378;13.122;2024-01-30T07:15:54;5.60;59.80
42227;DHT22;27892;52.378;13.122;2024-01-30T07:18:20;5.50;59.90
42227;DHT22;27892;52.378;13.122;2024-01-30T07:20:45;5.50;60.00
42227;DHT22;27892;52.378;13.122;2024-01-30T07:23:13;5.60;60.00
42227;DHT22;27892;52.378;13.122;2024-01-30T07:25:41;5.60;59.90
42227;DHT22;27892;52.378;13.122;2024-01-30T07:28:08;5.70;59.70
42227;DHT22;27892;52.378;13.122;2024-01-30T07:30:35;5.80;59.70
42227;DHT22;27892;52.378;13.122;2024-01-30T07:33:01;5.80;59.60
42227;DHT22;27892;52.378;13.122;2024-01-30T07:35:26;5.90;59.50
42227;DHT22;27892;52.378;13.122;2024-01-30T07:37:52;6.00;59.20
42227;DHT22;27892;52.378;13.122;2024-01-30T07:40:18;6.10;59.20
42227;DHT22;27892;52.378;13.122;2024-01-30T07:42:43;6.10;58.80
42227;DHT22;27892;52.378;13.122;2024-01-30T07:45:09;6.20;58.60
42227;DHT22;27892;52.378;13.122;2024-01-30T07:47:35;6.30;58.60
42227;DHT22;27892;52.378;13.122;2024-01-30T07:50:01;6.30;58.40
42227;DHT22;27892;52.378;13.122;2024-01-30T07:52:26;6.40;58.30
42227;DHT22;27892;52.378;13.122;2024-01-30T07:54:52;6.50;57.90
42227;DHT22;27892;52.378;13.122;2024-01-30T07:57:18;6.50;57.90
42227;DHT22;27892;52.378;13.122;2024-01-30T07:59:44;6.60;57.80
42227;DHT22;27892;52.378;13.122;2024-01-30T08:02:11;6.80;57.70
42227;DHT22;27892;52.378;13.122;2024-01-30T08:04:37;6.80;57.70
42227;DHT22;27892;52.378;13.122;2024-01-30T08:07:02;6.90;57.00
42227;DHT22;27892;52.378;13.122;2024-01-30T08:09:28;6.90;56.40
42227;DHT22;27892;52.378;13.122;2024-01-30T08:11:54;7.00;56.60
42227;DHT22;27892;52.378;13.122;2024-01-30T08:14:19;7.10;56.70
42227;DHT22;27892;52.378;13.122;2024-01-30T08:16:45;7.20;56.20
42227;DHT22;27892;52.378;13.122;2024-01-30T08:19:11;7.40;56.30
42227;DHT22;27892;52.378;13.122;2024-01-30T08:21:36;7.50;55.80
42227;DHT22;27892;52.378;13.122;2024-01-30T08:24:06;7.60;55.70
42227;DHT22;27892;52.378;13.122;2024-01-30T08:26:32;7.70;55.40
42227;DHT22;27892;52.378;13.122;2024-01-30T08:28:58;7.80;55.10
42227;DHT22;27892;52.378;13.122;2024-01-30T08:31:24;7.90;55.30
42227;DHT22;27892;52.378;13.122;2024-01-30T08:33:49;8.10;55.00
42227;DHT22;27892;52.378;13.122;2024-01-30T08:36:16;8.00;54.00
42227;DHT22;27892;52.378;13.122;2024-01-30T08:38:42;8.10;54.20
42227;DHT22;27892;52.378;13.122;2024-01-30T08:41:08;8.10;54.20
42227;DHT22;27892;52.378;13.122;2024-01-30T08:43:33;8.10;54.30
42227;DHT22;27892;52.378;13.122;2024-01-30T08:46:00;8.20;54.20
42227;DHT22;27892;52.378;13.122;2024-01-30T08:48:26;8.30;53.70
42227;DHT22;27892;52.378;13.122;2024-01-30T08:50:52;8.40;53.80
42227;DHT22;27892;52.378;13.122;2024-01-30T08:53:17;8.50;53.80
42227;DHT22;27892;52.378;13.122;2024-01-30T08:55:44;8.50;53.80
42227;DHT22;27892;52.378;13.122;2024-01-30T08:58:09;8.60;53.40
42227;DHT22;27892;52.378;13.122;2024-01-30T09:00:35;8.70;53.50
42227;DHT22;27892;52.378;13.122;2024-01-30T09:03:01;8.80;52.70
42227;DHT22;27892;52.378;13.122;2024-01-30T09:05:27;8.90;52.20
42227;DHT22;27892;52.378;13.122;2024-01-30T09:07:52;9.00;52.70
42227;DHT22;27892;52.378;13.122;2024-01-30T09:10:18;9.20;53.00
42227;DHT22;27892;52.378;13.122;2024-01-30T09:12:44;9.30;52.30
42227;DHT22;27892;52.378;13.122;2024-01-30T09:15:10;9.30;51.80
42227;DHT22;27892;52.378;13.122;2024-01-30T09:17:35;9.20;51.90
42227;DHT22;27892;52.378;13.122;2024-01-30T09:20:01;9.30;52.30
42227;DHT22;27892;52.378;13.122;2024-01-30T09:22:27;9.50;52.30
42227;DHT22;27892;52.378;13.122;2024-01-30T09:24:52;9.50;51.40
42227;DHT22;27892;52.378;13.122;2024-01-30T09:27:18;9.70;51.90
42227;DHT22;27892;52.378;13.122;2024-01-30T09:29:44;9.60;51.30
42227;DHT22;27892;52.378;13.122;2024-01-30T09:32:09;9.70;51.40
42227;DHT22;27892;52.378;13.122;2024-01-30T09:34:35;9.80;51.40
42227;DHT22;27892;52.378;13.122;2024-01-30T09:37:01;9.90;51.00
42227;DHT22;27892;52.378;13.122;2024-01-30T09:39:27;9.90;50.40
42227;DHT22;27892;52.378;13.122;2024-01-30T09:42:05;10.00;49.80
42227;DHT22;27892;52.378;13.122;2024-01-30T09:44:32;10.10;49.30
42227;DHT22;27892;52.378;13.122;2024-01-30T09:47:00;10.10;49.10
42227;DHT22;27892;52.378;13.122;2024-01-30T09:49:31;10.20;49.40
42227;DHT22;27892;52.378;13.122;2024-01-30T09:51:57;10.40;49.20
42227;DHT22;27892;52.378;13.122;2024-01-30T09:54:23;10.40;48.30
42227;DHT22;27892;52.378;13.122;2024-01-30T09:56:49;10.40;48.00
42227;DHT22;27892;52.378;13.122;2024-01-30T09:59:15;10.50;48.00
42227;DHT22;27892;52.378;13.122;2024-01-30T10:01:41;10.60;47.50
42227;DHT22;27892;52.378;13.122;2024-01-30T10:04:08;10.60;47.50
42227;DHT22;27892;52.378;13.122;2024-01-30T10:06:34;10.80;47.60
42227;DHT22;27892;52.378;13.122;2024-01-30T10:09:00;11.00;47.50
42227;DHT22;27892;52.378;13.122;2024-01-30T10:11:25;11.30;46.80
42227;DHT22;27892;52.378;13.122;2024-01-30T10:13:51;11.50;45.40
42227;DHT22;27892;52.378;13.122;2024-01-30T10:16:17;11.50;45.30
42227;DHT22;27892;52.378;13.122;2024-01-30T10:18:42;11.60;45.10
42227;DHT22;27892;52.378;13.122;2024-01-30T10:21:08;11.60;44.40
42227;DHT22;27892;52.378;13.122;2024-01-30T10:23:35;11.50;44.90
42227;DHT22;27892;52.378;13.122;2024-01-30T10:26:04;11.60;45.00
42227;DHT22;27892;52.378;13.122;2024-01-30T10:28:30;11.70;44.70
42227;DHT22;27892;52.378;13.122;2024-01-30T10:30:59;11.80;44.60
42227;DHT22;27892;52.378;13.122;2024-01-30T10:33:26;11.90;45.10
42227;DHT22;27892;52.378;13.122;2024-01-30T10:35:55;12.00;44.10
42227;DHT22;27892;52.378;13.122;2024-01-30T10:38:24;12.00;43.90
42227;DHT22;27892;52.378;13.122;2024-01-30T10:40:52;12.20;44.20
42227;DHT22;27892;52.378;13.122;2024-01-30T10:43:22;12.30;44.00
42227;DHT22;27892;52.378;13.122;2024-01-30T10:45:49;12.30;43.70
42227;DHT22;27892;52.378;13.122;2024-01-30T10:48:19;12.40;43.60
42227;DHT22;27892;52.378;13.122;2024-01-30T10:50:48;12.60;43.40
42227;DHT22;27892;52.378;13.122;2024-01-30T10:53:16;12.70;42.90
42227;DHT22;27892;52.378;13.122;2024-01-30T10:55:43;12.70;42.60
42227;DHT22;27892;52.378;13.122;2024-01-30T10:58:11;12.70;42.50
42227;DHT22;27892;52.378;13.122;2024-01-30T11:00:37;12.50;42.40
42227;DHT22;27892;52.378;13.122;2024-01-30T11:03:04;12.40;42.90
42227;DHT22;27892;52.378;13.122;2024-01-30T11:05:30;12.40;42.80
42227;DHT22;27892;52.378;13.122;2024-01-30T11:07:56;12.40;42.60
42227;DHT22;27892;52.378;13.122;2024-01-30T11:10:24;12.30;42.30
42227;DHT22;27892;52.378;13.122;2024-01-30T11:12:50;12.10;42.90
42227;DHT22;27892;52.378;13.122;2024-01-30T11:15:17;12.00;43.30
42227;DHT22;27892;52.378;13.122;2024-01-30T11:18:01;12.00;43.50
42227;DHT22;27892;52.378;13.122;2024-01-30T11:20:30;12.00;43.80
42227;DHT22;27892;52.378;13.122;2024-01-30T11:23:01;12.00;43.50
42227;DHT22;27892;52.378;13.122;2024-01-30T11:25:32;12.10;43.90
42227;DHT22;27892;52.378;13.122;2024-01-30T11:27:58;12.10;43.90
42227;DHT22;27892;52.378;13.122;2024-01-30T11:30:28;12.20;43.50
42227;DHT22;27892;52.378;13.122;2024-01-30T11:33:05;11.90;43.30
42227;DHT22;27892;52.378;13.122;2024-01-30T11:35:36;11.90;44.10
42227;DHT22;27892;52.378;13.122;2024-01-30T11:38:03;11.90;43.90
42227;DHT22;27892;52.378;13.122;2024-01-30T11:40:30;11.90;43.70
42227;DHT22;27892;52.378;13.122;2024-01-30T11:42:56;11.90;44.90
42227;DHT22;27892;52.378;13.122;2024-01-30T11:45:23;12.10;44.20
42227;DHT22;27892;52.378;13.122;2024-01-30T11:47:49;12.00;43.90
42227;DHT22;27892;52.378;13.122;2024-01-30T11:50:15;11.80;44.20
42227;DHT22;27892;52.378;13.122;2024-01-30T11:52:41;12.00;44.60
42227;DHT22;27892;52.378;13.122;2024-01-30T11:55:07;12.00;44.10
42227;DHT22;27892;52.378;13.122;2024-01-30T11:57:33;12.30;44.90
42227;DHT22;27892;52.378;13.122;2024-01-30T12:00:01;12.70;44.50
42227;DHT22;27892;52.378;13.122;2024-01-30T12:02:29;13.10;44.50
42227;DHT22;27892;52.378;13.122;2024-01-30T12:04:54;13.30;43.70
42227;DHT22;27892;52.378;13.122;2024-01-30T12:07:20;13.40;43.00
42227;DHT22;27892;52.378;13.122;2024-01-30T12:09:53;13.40;42.80
42227;DHT22;27892;52.378;13.122;2024-01-30T12:12:24;13.50;43.00
42227;DHT22;27892;52.378;13.122;2024-01-30T12:14:50;13.70;43.10
42227;DHT22;27892;52.378;13.122;2024-01-30T12:17:37;13.70;42.20
42227;DHT22;27892;52.378;13.122;2024-01-30T12:20:07;13.60;41.80
42227;DHT22;27892;52.378;13.122;2024-01-30T12:22:37;13.50;42.00
42227;DHT22;27892;52.378;13.122;2024-01-30T12:25:08;13.60;42.90
42227;DHT22;27892;52.378;13.122;2024-01-30T12:27:34;13.70;42.50
42227;DHT22;27892;52.378;13.122;2024-01-30T12:30:00;13.70;43.20
42227;DHT22;27892;52.378;13.122;2024-01-30T12:32:26;13.80;42.50
42227;DHT22;27892;52.378;13.122;2024-01-30T12:34:55;13.80;42.30
42227;DHT22;27892;52.378;13.122;2024-01-30T12:37:22;13.80;42.30
42227;DHT22;27892;52.378;13.122;2024-01-30T12:39:53;13.50;42.10
42227;DHT22;27892;52.378;13.122;2024-01-30T12:42:21;13.50;43.00
42227;DHT22;27892;52.378;13.122;2024-01-30T12:44:48;13.40;42.70
42227;DHT22;27892;52.378;13.122;2024-01-30T12:47:14;13.40;43.00
42227;DHT22;27892;52.378;13.122;2024-01-30T12:49:45;13.40;43.30
42227;DHT22;27892;52.378;13.122;2024-01-30T12:52:12;13.40;43.40
42227;DHT22;27892;52.378;13.122;2024-01-30T12:54:38;13.40;43.40
42227;DHT22;27892;52.378;13.122;2024-01-30T12:57:05;13.40;43.50
42227;DHT22;27892;52.378;13.122;2024-01-30T12:59:31;13.40;43.60
42227;DHT22;27892;52.378;13.122;2024-01-30T13:01:57;13.30;43.50
42227;DHT22;27892;52.378;13.122;2024-01-30T13:04:23;13.30;43.60
42227;DHT22;27892;52.378;13.122;2024-01-30T13:06:48;13.30;43.70
42227;DHT22;27892;52.378;13.122;2024-01-30T13:09:14;13.30;44.20
42227;DHT22;27892;52.378;13.122;2024-01-30T13:11:41;13.30;44.20
42227;DHT22;27892;52.378;13.122;2024-01-30T13:14:06;13.30;44.40
42227;DHT22;27892;52.378;13.122;2024-01-30T13:16:32;13.20;44.30
42227;DHT22;27892;52.378;13.122;2024-01-30T13:18:58;13.30;44.70
42227;DHT22;27892;52.378;13.122;2024-01-30T13:21:24;13.30;44.50
42227;DHT22;27892;52.378;13.122;2024-01-30T13:23:49;13.30;44.20
42227;DHT22;27892;52.378;13.122;2024-01-30T13:26:18;13.30;44.30
42227;DHT22;27892;52.378;13.122;2024-01-30T13:28:44;13.40;44.40
42227;DHT22;27892;52.378;13.122;2024-01-30T13:31:10;13.40;44.50
42227;DHT22;27892;52.378;13.122;2024-01-30T13:33:35;13.40;44.50
42227;DHT22;27892;52.378;13.122;2024-01-30T13:36:01;13.40;44.40
42227;DHT22;27892;52.378;13.122;2024-01-30T13:38:27;13.40;44.40
42227;DHT22;27892;52.378;13.122;2024-01-30T13:40:53;13.50;44.80
42227;DHT22;27892;52.378;13.122;2024-01-30T13:43:18;13.50;44.80
42227;DHT22;27892;52.378;13.122;2024-01-30T13:45:44;13.50;44.80
42227;DHT22;27892;52.378;13.122;2024-01-30T13:48:11;13.50;44.70
42227;DHT22;27892;52.378;13.122;2024-01-30T13:50:37;13.50;44.90
42227;DHT22;27892;52.378;13.122;2024-01-30T13:53:03;13.40;45.00
42227;DHT22;27892;52.378;13.122;2024-01-30T13:55:30;13.40;45.00
42227;DHT22;27892;52.378;13.122;2024-01-30T13:57:55;13.40;45.20
42227;DHT22;27892;52.378;13.122;2024-01-30T14:00:22;13.40;45.20
42227;DHT22;27892;52.378;13.122;2024-01-30T14:02:48;13.40;45.40
42227;DHT22;27892;52.378;13.122;2024-01-30T14:05:14;13.40;45.40
42227;DHT22;27892;52.378;13.122;2024-01-30T14:07:40;13.40;45.50
42227;DHT22;27892;52.378;13.122;2024-01-30T14:10:09;13.40;45.60
42227;DHT22;27892;52.378;13.122;2024-01-30T14:12:36;13.40;45.60
42227;DHT22;27892;52.378;13.122;2024-01-30T14:15:02;13.30;45.70
42227;DHT22;27892;52.378;13.122;2024-01-30T14:17:28;13.30;45.70
42227;DHT22;27892;52.378;13.122;2024-01-30T14:19:53;13.30;45.80
42227;DHT22;27892;52.378;13.122;2024-01-30T14:22:19;13.30;45.90
42227;DHT22;27892;52.378;13.122;2024-01-30T14:24:44;13.30;46.10
42227;DHT22;27892;52.378;13.122;2024-01-30T14:27:10;13.30;46.20
42227;DHT22;27892;52.378;13.122;2024-01-30T14:29:36;13.30;46.20
42227;DHT22;27892;52.378;13.122;2024-01-30T14:32:02;13.30;46.40
42227;DHT22;27892;52.378;13.122;2024-01-30T14:34:29;13.30;46.40
42227;DHT22;27892;52.378;13.122;2024-01-30T14:36:55;13.20;46.40
42227;DHT22;27892;52.378;13.122;2024-01-30T14:39:21;13.20;46.40
42227;DHT22;27892;52.378;13.122;2024-01-30T14:41:46;13.20;46.50
42227;DHT22;27892;52.378;13.122;2024-01-30T14:44:12;13.10;46.60
42227;DHT22;27892;52.378;13.122;2024-01-30T14:46:39;13.00;46.70
42227;DHT22;27892;52.378;13.122;2024-01-30T14:49:06;13.00;47.00
42227;DHT22;27892;52.378;13.122;2024-01-30T14:51:33;13.00;47.00
42227;DHT22;27892;52.378;13.122;2024-01-30T14:53:59;12.90;47.10
42227;DHT22;27892;52.378;13.122;2024-01-30T14:56:26;12.90;47.30
42227;DHT22;27892;52.378;13.122;2024-01-30T14:58:52;12.80;47.40
42227;DHT22;27892;52.378;13.122;2024-01-30T15:01:17;12.80;47.50
42227;DHT22;27892;52.378;13.122;2024-01-30T15:03:44;12.70;47.50
42227;DHT22;27892;52.378;13.122;2024-01-30T15:06:12;12.70;47.80
42227;DHT22;27892;52.378;13.122;2024-01-30T15:08:38;12.70;48.00
42227;DHT22;27892;52.378;13.122;2024-01-30T15:11:04;12.60;48.30
42227;DHT22;27892;52.378;13.122;2024-01-30T15:13:30;12.50;48.30
42227;DHT22;27892;52.378;13.122;2024-01-30T15:15:56;12.40;48.50
42227;DHT22;27892;52.378;13.122;2024-01-30T15:18:22;12.30;49.40
42227;DHT22;27892;52.378;13.122;2024-01-30T15:20:49;12.30;48.90